This is the latest recevied weather packets stored in our database for station/object S54L-12. If no packets are shown the sender has not sent any weather packets the latest 10 day(s).
| Time | Temp. | Humidity | Pressure | Rain* | Wind** | Luminosity | Snow |
|---|---|---|---|---|---|---|---|
| 1777272180 | 18.33° C | 27% | 926.8 hPa | - | - | - | - |
| 1777271280 | 18.33° C | 27% | 926.7 hPa | - | - | - | - |
| 1777270380 | 16.11° C | 29% | 926.6 hPa | - | - | - | - |
| 1777269480 | 16.11° C | 29% | 926.6 hPa | - | - | - | - |
| 1777268580 | 12.78° C | 36% | 926.6 hPa | - | - | - | - |
| 1777267680 | 8.33° C | 44% | 926.7 hPa | - | - | - | - |
| 1777266780 | 7.22° C | 48% | 926.7 hPa | - | - | - | - |
| 1777265880 | 6.11° C | 55% | 926.7 hPa | - | - | - | - |
| 1777264980 | 5.56° C | 54% | 926.6 hPa | - | - | - | - |
| 1777264080 | 5.56° C | 55% | 926.5 hPa | - | - | - | - |
| 1777263180 | 5° C | 56% | 926.4 hPa | - | - | - | - |
| 1777262280 | 5.56° C | 55% | 926.4 hPa | - | - | - | - |
| 1777261380 | 5.56° C | 52% | 926.4 hPa | - | - | - | - |
| 1777260480 | 6.11° C | 52% | 926.5 hPa | - | - | - | - |
| 1777259582 | 6.11° C | 51% | 926.7 hPa | - | - | - | - |
| 1777258682 | 6.11° C | 50% | 926.7 hPa | - | - | - | - |
| 1777257782 | 6.67° C | 48% | 926.7 hPa | - | - | - | - |
| 1777256882 | 6.67° C | 48% | 926.8 hPa | - | - | - | - |
| 1777255982 | 7.22° C | 49% | 926.8 hPa | - | - | - | - |
| 1777255082 | 6.67° C | 49% | 926.8 hPa | - | - | - | - |
| 1777254181 | 6.67° C | 50% | 926.9 hPa | - | - | - | - |
| 1777253281 | 6.67° C | 50% | 927 hPa | - | - | - | - |
| 1777252381 | 6.67° C | 51% | 927 hPa | - | - | - | - |
| 1777251481 | 7.22° C | 49% | 927 hPa | - | - | - | - |
| 1777250581 | 7.22° C | 49% | 927 hPa | - | - | - | - |
* Rain since midnight (hover to see other rain measurements)
** Current wind speed in m/s (hover to see current wind gust speed)